CheckWX is a tool to help pilots better visualize weather data.  It is not intended as a substitute for an official pre-flight weather briefing.

18:41:50 UTC

KCXY METAR
Capital City Airport
Harrisburg, Pennsylvania, USA
Current

46 mins ago

KCXY 241756Z 33010KT 10SM CLR 20/02 A2985 RMK AO2 SLP109 T02000017 10200 20139 58013
Observed
Apr-24 @ 17:56 UTC
Wind
  • 330° at 10 KTS
Visibility
10 SM
Flight Rules
VFR
Cloud Levels
  • Clear skies
Temperature
20°C / 68°F
Dewpoint
C / 36°F
Humidity
30%
Altimeter
29.85" Hg
Pressure
1010.82 hPa
Previous

2 hours ago

KCXY 241656Z 28013G16KT 260V320 10SM CLR 18/03 A2988 RMK AO2 SLP117 T01830033
Observed
Apr-24 @ 16:56 UTC
Wind
  • 280° at 13 KTS
  • Gusting to 16 KTS
Visibility
10 SM
Flight Rules
VFR
Cloud Levels
  • Clear skies
Temperature
18°C / 64°F
Dewpoint
C / 37°F
Humidity
37%
Altimeter
29.88" Hg
Pressure
1011.82 hPa
Previous

3 hours ago

KCXY 241556Z 30012G20KT 10SM CLR 18/03 A2989 RMK AO2 SLP121 T01780028
Observed
Apr-24 @ 15:56 UTC
Wind
  • 300° at 12 KTS
  • Gusting to 20 KTS
Visibility
10 SM
Flight Rules
VFR
Cloud Levels
  • Clear skies
Temperature
18°C / 64°F
Dewpoint
C / 37°F
Humidity
37%
Altimeter
29.89" Hg
Pressure
1012.22 hPa